sensor_id;sensor_type;location;lat;lon;timestamp;pressure;altitude;pressure_sealevel;temperature;humidity
64053;BME280;50299;49.524;8.536;2023-08-06T00:00:52;99635.81;;;13.28;78.12
64053;BME280;50299;49.524;8.536;2023-08-06T00:03:19;99628.72;;;13.31;76.72
64053;BME280;50299;49.524;8.536;2023-08-06T00:05:45;99625.00;;;13.23;78.22
64053;BME280;50299;49.524;8.536;2023-08-06T00:08:11;99622.81;;;13.32;78.81
64053;BME280;50299;49.524;8.536;2023-08-06T00:10:39;99618.06;;;13.33;78.01
64053;BME280;50299;49.524;8.536;2023-08-06T00:13:06;99612.00;;;13.27;78.17
64053;BME280;50299;49.524;8.536;2023-08-06T00:15:33;99610.25;;;13.39;77.99
64053;BME280;50299;49.524;8.536;2023-08-06T00:17:59;99612.44;;;13.49;75.92
64053;BME280;50299;49.524;8.536;2023-08-06T00:20:26;99606.41;;;13.47;76.98
64053;BME280;50299;49.524;8.536;2023-08-06T00:22:52;99602.25;;;13.56;76.95
64053;BME280;50299;49.524;8.536;2023-08-06T00:25:19;99601.59;;;13.63;78.44
64053;BME280;50299;49.524;8.536;2023-08-06T00:27:45;99603.19;;;13.64;74.10
64053;BME280;50299;49.524;8.536;2023-08-06T00:30:12;99594.13;;;13.67;75.05
64053;BME280;50299;49.524;8.536;2023-08-06T00:32:38;99594.94;;;13.25;75.37
64053;BME280;50299;49.524;8.536;2023-08-06T00:35:05;99582.28;;;13.28;75.16
64053;BME280;50299;49.524;8.536;2023-08-06T00:37:32;99585.53;;;13.11;76.39
64053;BME280;50299;49.524;8.536;2023-08-06T00:39:58;99580.50;;;13.16;77.44
64053;BME280;50299;49.524;8.536;2023-08-06T00:42:24;99571.59;;;13.07;76.94
64053;BME280;50299;49.524;8.536;2023-08-06T00:44:51;99576.25;;;13.03;78.31
64053;BME280;50299;49.524;8.536;2023-08-06T00:47:17;99570.28;;;13.01;77.56
64053;BME280;50299;49.524;8.536;2023-08-06T00:49:44;99558.19;;;12.90;78.45
64053;BME280;50299;49.524;8.536;2023-08-06T00:52:11;99560.72;;;12.98;77.11
64053;BME280;50299;49.524;8.536;2023-08-06T00:54:39;99553.94;;;12.96;76.44
64053;BME280;50299;49.524;8.536;2023-08-06T00:57:07;99559.91;;;12.98;77.21
64053;BME280;50299;49.524;8.536;2023-08-06T00:59:33;99563.16;;;13.00;77.81
64053;BME280;50299;49.524;8.536;2023-08-06T01:02:01;99556.59;;;13.12;77.58
64053;BME280;50299;49.524;8.536;2023-08-06T01:04:27;99561.06;;;13.16;78.18
64053;BME280;50299;49.524;8.536;2023-08-06T01:07:21;99560.91;;;13.51;76.27
64053;BME280;50299;49.524;8.536;2023-08-06T01:10:00;99564.34;;;13.45;76.36
64053;BME280;50299;49.524;8.536;2023-08-06T01:12:51;99559.13;;;13.63;76.39
64053;BME280;50299;49.524;8.536;2023-08-06T01:15:22;99552.22;;;13.53;76.86
64053;BME280;50299;49.524;8.536;2023-08-06T01:17:49;99544.34;;;13.36;75.93
64053;BME280;50299;49.524;8.536;2023-08-06T01:20:16;99544.03;;;13.41;75.44
64053;BME280;50299;49.524;8.536;2023-08-06T01:22:42;99538.19;;;13.46;75.97
64053;BME280;50299;49.524;8.536;2023-08-06T01:25:09;99533.50;;;13.27;75.72
64053;BME280;50299;49.524;8.536;2023-08-06T01:27:49;99541.41;;;13.25;77.32
64053;BME280;50299;49.524;8.536;2023-08-06T01:30:26;99534.47;;;13.15;75.54
64053;BME280;50299;49.524;8.536;2023-08-06T01:32:58;99538.66;;;13.28;76.47
64053;BME280;50299;49.524;8.536;2023-08-06T01:35:27;99527.63;;;13.32;76.22
64053;BME280;50299;49.524;8.536;2023-08-06T01:37:55;99533.19;;;13.32;73.57
64053;BME280;50299;49.524;8.536;2023-08-06T01:40:22;99525.47;;;13.22;75.55
64053;BME280;50299;49.524;8.536;2023-08-06T01:42:49;99521.41;;;13.16;76.34
64053;BME280;50299;49.524;8.536;2023-08-06T01:45:15;99523.31;;;13.12;75.22
64053;BME280;50299;49.524;8.536;2023-08-06T01:47:41;99524.72;;;13.02;76.60
64053;BME280;50299;49.524;8.536;2023-08-06T01:50:08;99524.00;;;13.05;76.45
64053;BME280;50299;49.524;8.536;2023-08-06T01:52:35;99519.66;;;13.07;74.93
64053;BME280;50299;49.524;8.536;2023-08-06T01:55:01;99523.44;;;13.19;74.85
64053;BME280;50299;49.524;8.536;2023-08-06T01:57:28;99515.91;;;13.19;75.35
64053;BME280;50299;49.524;8.536;2023-08-06T01:59:54;99520.81;;;13.26;75.03
64053;BME280;50299;49.524;8.536;2023-08-06T02:02:21;99521.53;;;13.46;76.40
64053;BME280;50299;49.524;8.536;2023-08-06T02:04:47;99537.97;;;13.54;75.86
64053;BME280;50299;49.524;8.536;2023-08-06T02:07:14;99530.81;;;13.53;75.69
64053;BME280;50299;49.524;8.536;2023-08-06T02:09:40;99528.84;;;13.54;74.22
64053;BME280;50299;49.524;8.536;2023-08-06T02:12:08;99522.78;;;13.71;73.95
64053;BME280;50299;49.524;8.536;2023-08-06T02:14:34;99526.16;;;13.61;73.12
64053;BME280;50299;49.524;8.536;2023-08-06T02:17:01;99527.09;;;13.46;71.17
64053;BME280;50299;49.524;8.536;2023-08-06T02:19:27;99517.47;;;13.63;74.03
64053;BME280;50299;49.524;8.536;2023-08-06T02:21:54;99517.47;;;13.40;74.50
64053;BME280;50299;49.524;8.536;2023-08-06T02:24:20;99520.13;;;13.10;71.65
64053;BME280;50299;49.524;8.536;2023-08-06T02:26:47;99512.28;;;13.15;74.43
64053;BME280;50299;49.524;8.536;2023-08-06T02:29:17;99500.88;;;13.20;70.77
64053;BME280;50299;49.524;8.536;2023-08-06T02:31:44;99501.44;;;12.87;71.18
64053;BME280;50299;49.524;8.536;2023-08-06T02:34:10;99510.09;;;12.82;70.74
64053;BME280;50299;49.524;8.536;2023-08-06T02:36:37;99507.97;;;12.56;73.66
64053;BME280;50299;49.524;8.536;2023-08-06T02:39:03;99499.06;;;12.47;71.65
64053;BME280;50299;49.524;8.536;2023-08-06T02:41:30;99491.63;;;12.51;73.38
64053;BME280;50299;49.524;8.536;2023-08-06T02:43:56;99498.63;;;12.45;74.20
64053;BME280;50299;49.524;8.536;2023-08-06T02:46:22;99494.25;;;12.44;72.39
64053;BME280;50299;49.524;8.536;2023-08-06T02:48:49;99496.56;;;12.42;73.79
64053;BME280;50299;49.524;8.536;2023-08-06T02:51:15;99490.63;;;12.40;71.33
64053;BME280;50299;49.524;8.536;2023-08-06T02:53:41;99488.41;;;12.29;75.73
64053;BME280;50299;49.524;8.536;2023-08-06T02:56:08;99490.75;;;12.27;74.66
64053;BME280;50299;49.524;8.536;2023-08-06T02:58:34;99484.56;;;12.34;73.49
64053;BME280;50299;49.524;8.536;2023-08-06T03:01:02;99478.56;;;12.32;74.58
64053;BME280;50299;49.524;8.536;2023-08-06T03:03:30;99460.56;;;12.22;75.47
64053;BME280;50299;49.524;8.536;2023-08-06T03:05:57;99478.63;;;12.16;75.21
64053;BME280;50299;49.524;8.536;2023-08-06T03:08:24;99471.56;;;12.19;75.54
64053;BME280;50299;49.524;8.536;2023-08-06T03:10:50;99477.47;;;11.98;75.20
64053;BME280;50299;49.524;8.536;2023-08-06T03:13:17;99480.25;;;11.82;76.02
64053;BME280;50299;49.524;8.536;2023-08-06T03:15:55;99478.75;;;11.84;76.51
64053;BME280;50299;49.524;8.536;2023-08-06T03:18:22;99466.31;;;11.94;76.70
64053;BME280;50299;49.524;8.536;2023-08-06T03:20:48;99472.81;;;12.02;76.69
64053;BME280;50299;49.524;8.536;2023-08-06T03:23:15;99471.56;;;12.19;75.10
64053;BME280;50299;49.524;8.536;2023-08-06T03:25:41;99460.25;;;12.08;74.98
64053;BME280;50299;49.524;8.536;2023-08-06T03:28:08;99465.56;;;12.17;76.10
64053;BME280;50299;49.524;8.536;2023-08-06T03:30:34;99466.25;;;12.10;75.86
64053;BME280;50299;49.524;8.536;2023-08-06T03:33:01;99465.66;;;12.20;76.59
64053;BME280;50299;49.524;8.536;2023-08-06T03:35:27;99460.78;;;12.33;75.12
64053;BME280;50299;49.524;8.536;2023-08-06T03:37:54;99458.16;;;12.21;76.06
64053;BME280;50299;49.524;8.536;2023-08-06T03:40:20;99459.03;;;12.25;75.27
64053;BME280;50299;49.524;8.536;2023-08-06T03:42:47;99458.88;;;12.37;74.83
64053;BME280;50299;49.524;8.536;2023-08-06T03:45:13;99464.03;;;12.58;74.39
64053;BME280;50299;49.524;8.536;2023-08-06T03:47:40;99469.34;;;12.63;71.85
64053;BME280;50299;49.524;8.536;2023-08-06T03:50:07;99463.41;;;12.65;73.34
64053;BME280;50299;49.524;8.536;2023-08-06T03:52:33;99468.88;;;12.61;72.85
64053;BME280;50299;49.524;8.536;2023-08-06T03:55:00;99467.63;;;12.58;71.08
64053;BME280;50299;49.524;8.536;2023-08-06T03:57:26;99469.47;;;12.51;71.93
64053;BME280;50299;49.524;8.536;2023-08-06T03:59:52;99462.75;;;12.52;72.38
64053;BME280;50299;49.524;8.536;2023-08-06T04:02:21;99460.13;;;12.40;71.87
64053;BME280;50299;49.524;8.536;2023-08-06T04:04:47;99461.50;;;12.49;71.98
64053;BME280;50299;49.524;8.536;2023-08-06T04:07:13;99464.78;;;12.55;73.43
64053;BME280;50299;49.524;8.536;2023-08-06T04:09:58;99467.72;;;12.43;71.57
64053;BME280;50299;49.524;8.536;2023-08-06T04:12:25;99464.19;;;12.46;72.00
64053;BME280;50299;49.524;8.536;2023-08-06T04:14:52;99458.88;;;12.37;71.68
64053;BME280;50299;49.524;8.536;2023-08-06T04:17:19;99460.34;;;12.31;73.68
64053;BME280;50299;49.524;8.536;2023-08-06T04:19:54;99466.53;;;12.44;73.51
64053;BME280;50299;49.524;8.536;2023-08-06T04:22:21;99457.19;;;12.32;73.90
64053;BME280;50299;49.524;8.536;2023-08-06T04:24:47;99464.19;;;12.46;74.19
64053;BME280;50299;49.524;8.536;2023-08-06T04:27:14;99458.53;;;12.39;74.38
64053;BME280;50299;49.524;8.536;2023-08-06T04:29:42;99454.50;;;12.17;76.20
64053;BME280;50299;49.524;8.536;2023-08-06T04:32:09;99455.91;;;12.26;75.33
64053;BME280;50299;49.524;8.536;2023-08-06T04:34:36;99454.41;;;12.13;74.71
64053;BME280;50299;49.524;8.536;2023-08-06T04:37:03;99457.78;;;12.22;77.02
64053;BME280;50299;49.524;8.536;2023-08-06T04:39:30;99455.59;;;11.93;77.92
64053;BME280;50299;49.524;8.536;2023-08-06T04:41:56;99460.59;;;11.87;79.23
64053;BME280;50299;49.524;8.536;2023-08-06T04:44:25;99452.97;;;12.00;78.12
64053;BME280;50299;49.524;8.536;2023-08-06T04:46:52;99455.34;;;11.82;77.44
64053;BME280;50299;49.524;8.536;2023-08-06T04:49:22;99461.50;;;11.75;77.53
64053;BME280;50299;49.524;8.536;2023-08-06T04:51:48;99462.13;;;11.84;77.73
64053;BME280;50299;49.524;8.536;2023-08-06T04:54:15;99455.66;;;12.16;77.07
64053;BME280;50299;49.524;8.536;2023-08-06T04:56:41;99461.72;;;12.02;77.77
64053;BME280;50299;49.524;8.536;2023-08-06T04:59:08;99454.13;;;11.99;76.92
64053;BME280;50299;49.524;8.536;2023-08-06T05:01:34;99457.31;;;12.01;77.33
64053;BME280;50299;49.524;8.536;2023-08-06T05:04:01;99457.84;;;12.06;76.28
64053;BME280;50299;49.524;8.536;2023-08-06T05:06:27;99455.50;;;12.08;74.78
64053;BME280;50299;49.524;8.536;2023-08-06T05:08:54;99462.69;;;12.09;74.76
64053;BME280;50299;49.524;8.536;2023-08-06T05:11:20;99458.88;;;11.98;77.19
64053;BME280;50299;49.524;8.536;2023-08-06T05:13:47;99463.84;;;11.73;80.05
64053;BME280;50299;49.524;8.536;2023-08-06T05:16:13;99462.16;;;11.53;80.69
64053;BME280;50299;49.524;8.536;2023-08-06T05:18:39;99462.38;;;11.44;81.05
64053;BME280;50299;49.524;8.536;2023-08-06T05:21:07;99467.91;;;11.28;85.77
64053;BME280;50299;49.524;8.536;2023-08-06T05:23:33;99468.88;;;11.20;87.93
64053;BME280;50299;49.524;8.536;2023-08-06T05:26:00;99465.84;;;11.09;85.68
64053;BME280;50299;49.524;8.536;2023-08-06T05:28:26;99468.69;;;11.13;84.09
64053;BME280;50299;49.524;8.536;2023-08-06T05:30:53;99469.47;;;10.98;83.73
64053;BME280;50299;49.524;8.536;2023-08-06T05:33:19;99467.34;;;10.91;83.73
64053;BME280;50299;49.524;8.536;2023-08-06T05:35:46;99463.16;;;10.97;83.34
64053;BME280;50299;49.524;8.536;2023-08-06T05:38:12;99470.84;;;11.20;83.19
64053;BME280;50299;49.524;8.536;2023-08-06T05:40:39;99477.19;;;11.20;83.72
64053;BME280;50299;49.524;8.536;2023-08-06T05:43:05;99478.50;;;11.26;81.78
64053;BME280;50299;49.524;8.536;2023-08-06T05:45:32;99471.28;;;11.06;81.62
64053;BME280;50299;49.524;8.536;2023-08-06T05:47:58;99488.34;;;11.08;83.86
64053;BME280;50299;49.524;8.536;2023-08-06T05:50:25;99478.25;;;11.16;83.42
64053;BME280;50299;49.524;8.536;2023-08-06T05:52:52;99483.16;;;11.22;82.51
64053;BME280;50299;49.524;8.536;2023-08-06T05:55:20;99483.16;;;11.38;81.83
64053;BME280;50299;49.524;8.536;2023-08-06T05:57:46;99485.22;;;11.41;81.58
64053;BME280;50299;49.524;8.536;2023-08-06T06:00:13;99486.19;;;11.33;82.91
64053;BME280;50299;49.524;8.536;2023-08-06T06:02:39;99480.84;;;11.40;80.62
64053;BME280;50299;49.524;8.536;2023-08-06T06:05:06;99485.47;;;11.20;83.70
64053;BME280;50299;49.524;8.536;2023-08-06T06:07:33;99478.88;;;11.09;84.11
64053;BME280;50299;49.524;8.536;2023-08-06T06:09:59;99477.19;;;11.20;84.27
64053;BME280;50299;49.524;8.536;2023-08-06T06:12:25;99491.53;;;11.10;83.99
64053;BME280;50299;49.524;8.536;2023-08-06T06:14:52;99478.78;;;11.05;85.57
64053;BME280;50299;49.524;8.536;2023-08-06T06:17:18;99491.44;;;11.22;83.92
64053;BME280;50299;49.524;8.536;2023-08-06T06:19:45;99490.56;;;11.02;86.65
64053;BME280;50299;49.524;8.536;2023-08-06T06:22:11;99481.19;;;10.91;87.45
64053;BME280;50299;49.524;8.536;2023-08-06T06:24:38;99486.72;;;10.91;87.33
64053;BME280;50299;49.524;8.536;2023-08-06T06:27:04;99489.59;;;11.10;84.76
64053;BME280;50299;49.524;8.536;2023-08-06T06:29:31;99491.97;;;10.96;85.31
64053;BME280;50299;49.524;8.536;2023-08-06T06:31:57;99488.25;;;11.04;86.78
64053;BME280;50299;49.524;8.536;2023-08-06T06:34:24;99494.94;;;11.19;85.30
64053;BME280;50299;49.524;8.536;2023-08-06T06:36:50;99502.16;;;11.08;84.71
64053;BME280;50299;49.524;8.536;2023-08-06T06:39:17;99501.53;;;11.46;84.08
64053;BME280;50299;49.524;8.536;2023-08-06T06:41:44;99498.44;;;11.32;83.58
64053;BME280;50299;49.524;8.536;2023-08-06T06:44:10;99515.91;;;11.20;83.36
64053;BME280;50299;49.524;8.536;2023-08-06T06:46:37;99496.38;;;11.29;84.55
64053;BME280;50299;49.524;8.536;2023-08-06T06:49:03;99502.59;;;11.26;85.56
64053;BME280;50299;49.524;8.536;2023-08-06T06:51:30;99509.22;;;11.21;88.29
64053;BME280;50299;49.524;8.536;2023-08-06T06:53:58;99501.28;;;11.35;86.07
64053;BME280;50299;49.524;8.536;2023-08-06T06:56:24;99499.31;;;11.52;82.81
64053;BME280;50299;49.524;8.536;2023-08-06T06:58:51;99493.22;;;11.46;84.68
64053;BME280;50299;49.524;8.536;2023-08-06T07:01:17;99505.84;;;11.44;84.08
64053;BME280;50299;49.524;8.536;2023-08-06T07:03:44;99505.38;;;11.73;83.71
64053;BME280;50299;49.524;8.536;2023-08-06T07:06:10;99501.25;;;11.67;82.42
64053;BME280;50299;49.524;8.536;2023-08-06T07:08:38;99498.75;;;11.78;83.48
64053;BME280;50299;49.524;8.536;2023-08-06T07:11:06;99499.72;;;11.86;80.60
64053;BME280;50299;49.524;8.536;2023-08-06T07:13:33;99487.06;;;12.04;80.97
64053;BME280;50299;49.524;8.536;2023-08-06T07:16:01;99484.69;;;12.02;80.46
64053;BME280;50299;49.524;8.536;2023-08-06T07:18:28;99495.38;;;12.04;80.28
64053;BME280;50299;49.524;8.536;2023-08-06T07:20:55;99487.63;;;12.09;79.56
64053;BME280;50299;49.524;8.536;2023-08-06T07:23:23;99496.09;;;12.01;79.45
64053;BME280;50299;49.524;8.536;2023-08-06T07:25:50;99494.03;;;12.14;81.08
64053;BME280;50299;49.524;8.536;2023-08-06T07:28:17;99497.25;;;12.35;78.59
64053;BME280;50299;49.524;8.536;2023-08-06T07:30:44;99495.56;;;12.30;78.13
64053;BME280;50299;49.524;8.536;2023-08-06T07:33:11;99503.53;;;12.51;77.03
64053;BME280;50299;49.524;8.536;2023-08-06T07:35:38;99501.03;;;12.85;77.79
64053;BME280;50299;49.524;8.536;2023-08-06T07:38:04;99503.16;;;12.92;77.94
64053;BME280;50299;49.524;8.536;2023-08-06T07:40:31;99500.81;;;12.74;78.02
64053;BME280;50299;49.524;8.536;2023-08-06T07:42:57;99501.09;;;12.50;77.02
64053;BME280;50299;49.524;8.536;2023-08-06T07:45:24;99488.41;;;12.29;78.21
64053;BME280;50299;49.524;8.536;2023-08-06T07:47:50;99502.91;;;12.03;77.89
64053;BME280;50299;49.524;8.536;2023-08-06T07:50:17;99496.50;;;12.19;79.67
64053;BME280;50299;49.524;8.536;2023-08-06T07:52:44;99504.22;;;12.29;77.38
64053;BME280;50299;49.524;8.536;2023-08-06T07:55:10;99489.16;;;12.26;80.28
64053;BME280;50299;49.524;8.536;2023-08-06T07:57:37;99496.59;;;12.61;79.20
64053;BME280;50299;49.524;8.536;2023-08-06T08:00:05;99497.84;;;12.64;80.38
64053;BME280;50299;49.524;8.536;2023-08-06T08:02:31;99498.19;;;12.81;78.89
64053;BME280;50299;49.524;8.536;2023-08-06T08:04:58;99502.31;;;12.68;77.34
64053;BME280;50299;49.524;8.536;2023-08-06T08:07:24;99502.59;;;12.63;80.66
64053;BME280;50299;49.524;8.536;2023-08-06T08:09:51;99498.03;;;12.74;80.35
64053;BME280;50299;49.524;8.536;2023-08-06T08:12:17;99500.72;;;12.90;81.89
64053;BME280;50299;49.524;8.536;2023-08-06T08:14:43;99498.09;;;12.97;78.90
64053;BME280;50299;49.524;8.536;2023-08-06T08:17:11;99500.69;;;13.32;77.19
64053;BME280;50299;49.524;8.536;2023-08-06T08:19:40;99497.81;;;13.25;75.28
64053;BME280;50299;49.524;8.536;2023-08-06T08:22:06;99492.63;;;13.73;78.56
64053;BME280;50299;49.524;8.536;2023-08-06T08:24:33;99483.91;;;14.01;73.29
64053;BME280;50299;49.524;8.536;2023-08-06T08:27:00;99485.16;;;14.04;73.17
64053;BME280;50299;49.524;8.536;2023-08-06T08:29:26;99488.97;;;14.52;73.64
64053;BME280;50299;49.524;8.536;2023-08-06T08:31:52;99479.28;;;14.73;71.81
64053;BME280;50299;49.524;8.536;2023-08-06T08:34:20;99491.91;;;15.04;69.47
64053;BME280;50299;49.524;8.536;2023-08-06T08:36:46;99481.53;;;15.01;67.61
64053;BME280;50299;49.524;8.536;2023-08-06T08:39:13;99476.50;;;14.76;70.53
64053;BME280;50299;49.524;8.536;2023-08-06T08:41:41;99480.91;;;14.14;70.52
64053;BME280;50299;49.524;8.536;2023-08-06T08:44:09;99482.78;;;13.53;73.36
64053;BME280;50299;49.524;8.536;2023-08-06T08:46:40;99480.03;;;13.53;72.86
64053;BME280;50299;49.524;8.536;2023-08-06T08:49:07;99473.16;;;13.70;74.40
64053;BME280;50299;49.524;8.536;2023-08-06T08:51:34;99473.66;;;13.52;71.64
64053;BME280;50299;49.524;8.536;2023-08-06T08:54:03;99472.78;;;13.71;72.71
64053;BME280;50299;49.524;8.536;2023-08-06T08:56:31;99467.50;;;14.19;74.92
64053;BME280;50299;49.524;8.536;2023-08-06T08:58:57;99475.00;;;14.15;70.02
64053;BME280;50299;49.524;8.536;2023-08-06T09:01:25;99471.47;;;13.92;72.48
64053;BME280;50299;49.524;8.536;2023-08-06T09:03:53;99466.69;;;13.89;71.91
64053;BME280;50299;49.524;8.536;2023-08-06T09:06:20;99464.97;;;13.80;72.17
64053;BME280;50299;49.524;8.536;2023-08-06T09:08:54;99462.91;;;13.74;71.89
64053;BME280;50299;49.524;8.536;2023-08-06T09:11:23;99466.78;;;13.69;72.41
64053;BME280;50299;49.524;8.536;2023-08-06T09:13:49;99462.63;;;13.83;71.28
64053;BME280;50299;49.524;8.536;2023-08-06T09:16:16;99464.63;;;13.86;70.91
64053;BME280;50299;49.524;8.536;2023-08-06T09:18:43;99457.38;;;13.77;73.55
64053;BME280;50299;49.524;8.536;2023-08-06T09:21:14;99449.44;;;13.49;73.21
64053;BME280;50299;49.524;8.536;2023-08-06T09:23:41;99449.81;;;13.25;70.02
64053;BME280;50299;49.524;8.536;2023-08-06T09:26:11;99465.03;;;13.12;68.80
64053;BME280;50299;49.524;8.536;2023-08-06T09:28:41;99465.97;;;13.19;68.40
64053;BME280;50299;49.524;8.536;2023-08-06T09:31:09;99466.25;;;13.60;68.55
64053;BME280;50299;49.524;8.536;2023-08-06T09:33:38;99462.75;;;13.93;70.05
64053;BME280;50299;49.524;8.536;2023-08-06T09:36:09;99450.63;;;14.35;70.24
64053;BME280;50299;49.524;8.536;2023-08-06T09:38:40;99456.94;;;14.66;64.71
64053;BME280;50299;49.524;8.536;2023-08-06T09:41:07;99448.53;;;14.59;63.73
64053;BME280;50299;49.524;8.536;2023-08-06T09:43:41;99455.84;;;14.74;65.14
64053;BME280;50299;49.524;8.536;2023-08-06T09:46:14;99451.22;;;14.51;66.13
64053;BME280;50299;49.524;8.536;2023-08-06T09:48:46;99460.16;;;14.34;64.76
64053;BME280;50299;49.524;8.536;2023-08-06T09:51:15;99460.09;;;14.00;63.24
64053;BME280;50299;49.524;8.536;2023-08-06T09:53:42;99474.59;;;14.17;64.18
64053;BME280;50299;49.524;8.536;2023-08-06T09:56:12;99478.16;;;13.87;65.91
64053;BME280;50299;49.524;8.536;2023-08-06T09:58:40;99475.09;;;13.20;72.19
64053;BME280;50299;49.524;8.536;2023-08-06T10:01:10;99479.47;;;12.98;83.63
64053;BME280;50299;49.524;8.536;2023-08-06T10:03:38;99480.97;;;12.53;79.17
64053;BME280;50299;49.524;8.536;2023-08-06T10:06:05;99476.25;;;12.73;78.54
64053;BME280;50299;49.524;8.536;2023-08-06T10:08:34;99470.97;;;13.10;75.19
64053;BME280;50299;49.524;8.536;2023-08-06T10:11:02;99473.19;;;14.00;72.64
64053;BME280;50299;49.524;8.536;2023-08-06T10:13:31;99479.09;;;13.98;68.37
64053;BME280;50299;49.524;8.536;2023-08-06T10:15:59;99495.19;;;13.59;67.44
64053;BME280;50299;49.524;8.536;2023-08-06T10:18:27;99487.03;;;13.47;67.55
64053;BME280;50299;49.524;8.536;2023-08-06T10:20:54;99498.06;;;13.17;67.78
64053;BME280;50299;49.524;8.536;2023-08-06T10:23:33;99481.47;;;12.78;69.01
64053;BME280;50299;49.524;8.536;2023-08-06T10:25:59;99499.28;;;12.57;76.87
64053;BME280;50299;49.524;8.536;2023-08-06T10:28:38;99492.00;;;12.30;76.36
64053;BME280;50299;49.524;8.536;2023-08-06T10:31:06;99499.91;;;11.93;74.40
64053;BME280;50299;49.524;8.536;2023-08-06T10:33:43;99499.53;;;11.94;75.17
64053;BME280;50299;49.524;8.536;2023-08-06T10:36:10;99501.78;;;11.89;75.00
64053;BME280;50299;49.524;8.536;2023-08-06T10:38:44;99508.22;;;11.93;75.21
64053;BME280;50299;49.524;8.536;2023-08-06T10:41:28;99514.69;;;12.00;74.70
64053;BME280;50299;49.524;8.536;2023-08-06T10:44:08;99515.94;;;12.38;76.41
64053;BME280;50299;49.524;8.536;2023-08-06T10:46:36;99522.00;;;12.63;73.51
64053;BME280;50299;49.524;8.536;2023-08-06T10:49:04;99526.72;;;12.63;72.52
64053;BME280;50299;49.524;8.536;2023-08-06T10:51:30;99525.97;;;12.27;72.15
64053;BME280;50299;49.524;8.536;2023-08-06T10:53:57;99540.41;;;12.36;71.64
64053;BME280;50299;49.524;8.536;2023-08-06T10:56:25;99538.16;;;12.22;72.67
64053;BME280;50299;49.524;8.536;2023-08-06T10:58:56;99528.28;;;12.05;72.09
64053;BME280;50299;49.524;8.536;2023-08-06T11:01:23;99532.09;;;12.36;72.22
64053;BME280;50299;49.524;8.536;2023-08-06T11:03:51;99533.63;;;12.14;69.94
64053;BME280;50299;49.524;8.536;2023-08-06T11:06:21;99539.03;;;12.46;70.47
64053;BME280;50299;49.524;8.536;2023-08-06T11:08:53;99537.63;;;12.71;68.12
64053;BME280;50299;49.524;8.536;2023-08-06T11:11:21;99547.63;;;12.41;68.42
64053;BME280;50299;49.524;8.536;2023-08-06T11:13:50;99555.28;;;12.28;68.84
64053;BME280;50299;49.524;8.536;2023-08-06T11:16:18;99560.16;;;12.15;69.32
64053;BME280;50299;49.524;8.536;2023-08-06T11:18:45;99558.88;;;12.48;67.99
64053;BME280;50299;49.524;8.536;2023-08-06T11:21:12;99557.50;;;12.38;66.87
64053;BME280;50299;49.524;8.536;2023-08-06T11:23:40;99558.50;;;12.49;67.98
64053;BME280;50299;49.524;8.536;2023-08-06T11:26:07;99561.81;;;12.74;66.51
64053;BME280;50299;49.524;8.536;2023-08-06T11:28:34;99569.50;;;12.62;67.32
64053;BME280;50299;49.524;8.536;2023-08-06T11:31:01;99560.28;;;12.96;66.35
64053;BME280;50299;49.524;8.536;2023-08-06T11:33:29;99563.38;;;13.33;64.02
64053;BME280;50299;49.524;8.536;2023-08-06T11:35:57;99574.34;;;13.72;64.08
64053;BME280;50299;49.524;8.536;2023-08-06T11:38:33;99578.22;;;13.45;62.73
64053;BME280;50299;49.524;8.536;2023-08-06T11:41:03;99576.53;;;13.40;61.85
64053;BME280;50299;49.524;8.536;2023-08-06T11:43:51;99583.63;;;13.15;63.87
64053;BME280;50299;49.524;8.536;2023-08-06T11:46:18;99577.41;;;13.21;63.31
64053;BME280;50299;49.524;8.536;2023-08-06T11:48:58;99590.72;;;13.12;64.30
64053;BME280;50299;49.524;8.536;2023-08-06T11:51:27;99591.09;;;12.91;64.82
64053;BME280;50299;49.524;8.536;2023-08-06T11:53:57;99582.72;;;12.88;65.13
64053;BME280;50299;49.524;8.536;2023-08-06T11:56:25;99597.59;;;12.79;64.59
64053;BME280;50299;49.524;8.536;2023-08-06T11:58:54;99611.19;;;12.85;65.04
64053;BME280;50299;49.524;8.536;2023-08-06T12:01:21;99605.19;;;13.02;66.59
64053;BME280;50299;49.524;8.536;2023-08-06T12:03:47;99621.41;;;13.42;62.60
64053;BME280;50299;49.524;8.536;2023-08-06T12:06:14;99608.41;;;13.04;64.10
64053;BME280;50299;49.524;8.536;2023-08-06T12:08:40;99626.56;;;13.21;63.15
64053;BME280;50299;49.524;8.536;2023-08-06T12:11:08;99627.53;;;13.09;61.73
64053;BME280;50299;49.524;8.536;2023-08-06T12:13:35;99624.69;;;13.48;60.70
64053;BME280;50299;49.524;8.536;2023-08-06T12:16:01;99641.09;;;13.76;60.25
64053;BME280;50299;49.524;8.536;2023-08-06T12:18:28;99643.13;;;13.79;60.20
64053;BME280;50299;49.524;8.536;2023-08-06T12:20:54;99638.59;;;13.28;60.37
64053;BME280;50299;49.524;8.536;2023-08-06T12:23:21;99628.75;;;13.12;59.38
64053;BME280;50299;49.524;8.536;2023-08-06T12:25:47;99642.34;;;13.17;60.34
64053;BME280;50299;49.524;8.536;2023-08-06T12:28:14;99650.38;;;13.64;59.64
64053;BME280;50299;49.524;8.536;2023-08-06T12:30:41;99659.41;;;13.80;60.68
64053;BME280;50299;49.524;8.536;2023-08-06T12:33:11;99663.97;;;13.69;57.55
64053;BME280;50299;49.524;8.536;2023-08-06T12:35:38;99660.00;;;12.89;58.38
64053;BME280;50299;49.524;8.536;2023-08-06T12:38:04;99656.56;;;13.15;58.77
64053;BME280;50299;49.524;8.536;2023-08-06T12:40:31;99669.81;;;13.45;57.70
64053;BME280;50299;49.524;8.536;2023-08-06T12:43:03;99674.09;;;13.39;58.39
64053;BME280;50299;49.524;8.536;2023-08-06T12:45:30;99672.78;;;13.52;57.55
64053;BME280;50299;49.524;8.536;2023-08-06T12:47:56;99671.63;;;13.76;59.22
64053;BME280;50299;49.524;8.536;2023-08-06T12:50:23;99681.94;;;13.75;58.31
64053;BME280;50299;49.524;8.536;2023-08-06T12:52:50;99676.53;;;13.83;57.11
64053;BME280;50299;49.524;8.536;2023-08-06T12:55:16;99687.53;;;13.56;57.02
64053;BME280;50299;49.524;8.536;2023-08-06T12:57:42;99700.53;;;13.71;56.97
64053;BME280;50299;49.524;8.536;2023-08-06T13:00:26;99689.78;;;13.93;58.35
64053;BME280;50299;49.524;8.536;2023-08-06T13:02:52;99702.28;;;13.60;59.24